sensor_id;sensor_type;location;lat;lon;timestamp;temperature;humidity
33207;DHT22;19565;46.602;11.534;2023-05-17T00:02:26;15.00;80.40
33207;DHT22;19565;46.602;11.534;2023-05-17T00:04:54;15.00;82.10
33207;DHT22;19565;46.602;11.534;2023-05-17T00:07:23;15.00;83.90
33207;DHT22;19565;46.602;11.534;2023-05-17T00:09:50;15.00;83.00
33207;DHT22;19565;46.602;11.534;2023-05-17T00:12:18;15.00;82.20
33207;DHT22;19565;46.602;11.534;2023-05-17T00:14:48;15.00;83.80
33207;DHT22;19565;46.602;11.534;2023-05-17T00:17:16;14.90;83.80
33207;DHT22;19565;46.602;11.534;2023-05-17T00:19:44;14.90;85.50
33207;DHT22;19565;46.602;11.534;2023-05-17T00:22:13;14.80;83.50
33207;DHT22;19565;46.602;11.534;2023-05-17T00:24:41;14.80;82.10
33207;DHT22;19565;46.602;11.534;2023-05-17T00:27:10;14.70;79.40
33207;DHT22;19565;46.602;11.534;2023-05-17T00:29:38;14.70;80.10
33207;DHT22;19565;46.602;11.534;2023-05-17T00:32:09;14.80;83.00
33207;DHT22;19565;46.602;11.534;2023-05-17T00:34:37;14.80;84.10
33207;DHT22;19565;46.602;11.534;2023-05-17T00:37:05;14.80;81.80
33207;DHT22;19565;46.602;11.534;2023-05-17T00:39:33;14.90;85.00
33207;DHT22;19565;46.602;11.534;2023-05-17T00:42:02;14.80;79.90
33207;DHT22;19565;46.602;11.534;2023-05-17T00:44:30;14.70;80.70
33207;DHT22;19565;46.602;11.534;2023-05-17T00:46:57;14.80;82.80
33207;DHT22;19565;46.602;11.534;2023-05-17T00:49:28;14.80;82.20
33207;DHT22;19565;46.602;11.534;2023-05-17T00:51:56;14.70;81.50
33207;DHT22;19565;46.602;11.534;2023-05-17T00:54:25;14.70;82.90
33207;DHT22;19565;46.602;11.534;2023-05-17T00:56:53;14.80;83.00
33207;DHT22;19565;46.602;11.534;2023-05-17T00:59:23;14.80;82.30
33207;DHT22;19565;46.602;11.534;2023-05-17T01:01:53;14.70;80.60
33207;DHT22;19565;46.602;11.534;2023-05-17T01:04:21;14.70;81.70
33207;DHT22;19565;46.602;11.534;2023-05-17T01:06:50;14.70;83.20
33207;DHT22;19565;46.602;11.534;2023-05-17T01:09:19;14.70;83.50
33207;DHT22;19565;46.602;11.534;2023-05-17T01:11:53;14.70;83.60
33207;DHT22;19565;46.602;11.534;2023-05-17T01:14:31;14.70;83.00
33207;DHT22;19565;46.602;11.534;2023-05-17T01:17:05;14.70;81.50
33207;DHT22;19565;46.602;11.534;2023-05-17T01:19:48;14.70;81.10
33207;DHT22;19565;46.602;11.534;2023-05-17T01:22:38;14.70;82.10
33207;DHT22;19565;46.602;11.534;2023-05-17T01:25:14;14.50;80.40
33207;DHT22;19565;46.602;11.534;2023-05-17T01:27:49;14.50;81.40
33207;DHT22;19565;46.602;11.534;2023-05-17T01:30:19;14.50;81.90
33207;DHT22;19565;46.602;11.534;2023-05-17T01:32:47;14.50;82.30
33207;DHT22;19565;46.602;11.534;2023-05-17T01:35:15;14.50;82.80
33207;DHT22;19565;46.602;11.534;2023-05-17T01:37:43;14.30;81.40
33207;DHT22;19565;46.602;11.534;2023-05-17T01:40:11;14.20;79.80
33207;DHT22;19565;46.602;11.534;2023-05-17T01:42:41;14.20;81.30
33207;DHT22;19565;46.602;11.534;2023-05-17T01:45:17;14.30;81.20
33207;DHT22;19565;46.602;11.534;2023-05-17T01:47:52;14.30;79.50
33207;DHT22;19565;46.602;11.534;2023-05-17T01:50:24;14.30;78.80
33207;DHT22;19565;46.602;11.534;2023-05-17T01:52:58;14.30;80.60
33207;DHT22;19565;46.602;11.534;2023-05-17T01:55:34;14.30;81.00
33207;DHT22;19565;46.602;11.534;2023-05-17T01:58:06;14.30;80.00
33207;DHT22;19565;46.602;11.534;2023-05-17T02:00:37;14.30;81.40
33207;DHT22;19565;46.602;11.534;2023-05-17T02:03:06;14.20;81.50
33207;DHT22;19565;46.602;11.534;2023-05-17T02:05:38;14.10;81.60
33207;DHT22;19565;46.602;11.534;2023-05-17T02:08:06;14.10;82.30
33207;DHT22;19565;46.602;11.534;2023-05-17T02:10:34;14.00;83.10
33207;DHT22;19565;46.602;11.534;2023-05-17T02:13:02;14.00;83.30
33207;DHT22;19565;46.602;11.534;2023-05-17T02:15:31;13.90;83.50
33207;DHT22;19565;46.602;11.534;2023-05-17T02:18:00;13.80;83.20
33207;DHT22;19565;46.602;11.534;2023-05-17T02:20:28;13.90;83.50
33207;DHT22;19565;46.602;11.534;2023-05-17T02:22:56;13.90;83.50
33207;DHT22;19565;46.602;11.534;2023-05-17T02:25:24;14.00;82.80
33207;DHT22;19565;46.602;11.534;2023-05-17T02:27:53;14.10;83.80
33207;DHT22;19565;46.602;11.534;2023-05-17T02:30:21;14.20;83.90
33207;DHT22;19565;46.602;11.534;2023-05-17T02:32:50;14.20;83.20
33207;DHT22;19565;46.602;11.534;2023-05-17T02:35:20;14.10;82.40
33207;DHT22;19565;46.602;11.534;2023-05-17T02:37:48;14.20;84.00
33207;DHT22;19565;46.602;11.534;2023-05-17T02:40:16;14.20;83.50
33207;DHT22;19565;46.602;11.534;2023-05-17T02:42:44;14.20;83.70
33207;DHT22;19565;46.602;11.534;2023-05-17T02:45:12;14.30;84.10
33207;DHT22;19565;46.602;11.534;2023-05-17T02:47:41;14.30;85.20
33207;DHT22;19565;46.602;11.534;2023-05-17T02:50:10;14.20;85.60
33207;DHT22;19565;46.602;11.534;2023-05-17T02:52:39;14.20;85.80
33207;DHT22;19565;46.602;11.534;2023-05-17T02:55:08;14.20;86.40
33207;DHT22;19565;46.602;11.534;2023-05-17T02:57:36;14.20;87.20
33207;DHT22;19565;46.602;11.534;2023-05-17T03:00:05;14.20;86.80
33207;DHT22;19565;46.602;11.534;2023-05-17T03:02:34;14.10;88.80
33207;DHT22;19565;46.602;11.534;2023-05-17T03:05:03;14.10;87.50
33207;DHT22;19565;46.602;11.534;2023-05-17T03:07:31;14.10;88.60
33207;DHT22;19565;46.602;11.534;2023-05-17T03:10:01;14.00;90.20
33207;DHT22;19565;46.602;11.534;2023-05-17T03:12:28;13.90;90.40
33207;DHT22;19565;46.602;11.534;2023-05-17T03:14:58;13.90;90.60
33207;DHT22;19565;46.602;11.534;2023-05-17T03:17:26;13.80;90.40
33207;DHT22;19565;46.602;11.534;2023-05-17T03:19:54;13.80;90.10
33207;DHT22;19565;46.602;11.534;2023-05-17T03:22:22;13.70;90.70
33207;DHT22;19565;46.602;11.534;2023-05-17T03:24:50;13.70;90.20
33207;DHT22;19565;46.602;11.534;2023-05-17T03:27:20;13.70;89.30
33207;DHT22;19565;46.602;11.534;2023-05-17T03:29:48;13.70;90.70
33207;DHT22;19565;46.602;11.534;2023-05-17T03:32:16;13.70;90.90
33207;DHT22;19565;46.602;11.534;2023-05-17T03:34:44;13.60;90.50
33207;DHT22;19565;46.602;11.534;2023-05-17T03:37:12;13.60;91.30
33207;DHT22;19565;46.602;11.534;2023-05-17T03:39:40;13.50;91.60
33207;DHT22;19565;46.602;11.534;2023-05-17T03:42:08;13.50;91.30
33207;DHT22;19565;46.602;11.534;2023-05-17T03:44:38;13.50;91.50
33207;DHT22;19565;46.602;11.534;2023-05-17T03:47:06;13.50;91.90
33207;DHT22;19565;46.602;11.534;2023-05-17T03:49:34;13.40;92.00
33207;DHT22;19565;46.602;11.534;2023-05-17T03:52:03;13.40;91.80
33207;DHT22;19565;46.602;11.534;2023-05-17T03:54:31;13.40;90.50
33207;DHT22;19565;46.602;11.534;2023-05-17T03:56:59;13.40;92.00
33207;DHT22;19565;46.602;11.534;2023-05-17T03:59:27;13.40;92.80
33207;DHT22;19565;46.602;11.534;2023-05-17T04:01:56;13.30;92.70
33207;DHT22;19565;46.602;11.534;2023-05-17T04:04:24;13.30;92.80
33207;DHT22;19565;46.602;11.534;2023-05-17T04:06:53;13.20;91.70
33207;DHT22;19565;46.602;11.534;2023-05-17T04:09:21;13.20;92.60
33207;DHT22;19565;46.602;11.534;2023-05-17T04:11:48;13.20;93.40
33207;DHT22;19565;46.602;11.534;2023-05-17T04:14:17;13.20;93.70
33207;DHT22;19565;46.602;11.534;2023-05-17T04:16:45;13.10;94.10
33207;DHT22;19565;46.602;11.534;2023-05-17T04:19:14;13.10;94.20
33207;DHT22;19565;46.602;11.534;2023-05-17T04:21:43;13.10;94.70
33207;DHT22;19565;46.602;11.534;2023-05-17T04:24:11;13.10;94.70
33207;DHT22;19565;46.602;11.534;2023-05-17T04:26:39;13.10;94.60
33207;DHT22;19565;46.602;11.534;2023-05-17T04:29:07;13.10;94.10
33207;DHT22;19565;46.602;11.534;2023-05-17T04:31:35;13.10;94.20
33207;DHT22;19565;46.602;11.534;2023-05-17T04:34:03;13.20;94.30
33207;DHT22;19565;46.602;11.534;2023-05-17T04:36:32;13.10;93.40
33207;DHT22;19565;46.602;11.534;2023-05-17T04:39:00;13.20;93.80
33207;DHT22;19565;46.602;11.534;2023-05-17T04:41:29;13.20;94.20
33207;DHT22;19565;46.602;11.534;2023-05-17T04:43:57;13.20;93.80
33207;DHT22;19565;46.602;11.534;2023-05-17T04:46:25;13.20;94.40
33207;DHT22;19565;46.602;11.534;2023-05-17T04:48:53;13.20;94.90
33207;DHT22;19565;46.602;11.534;2023-05-17T04:51:22;13.20;95.00
33207;DHT22;19565;46.602;11.534;2023-05-17T04:53:51;13.20;94.80
33207;DHT22;19565;46.602;11.534;2023-05-17T04:56:19;13.20;95.00
33207;DHT22;19565;46.602;11.534;2023-05-17T04:58:48;13.20;95.30
33207;DHT22;19565;46.602;11.534;2023-05-17T05:01:18;13.20;95.50
33207;DHT22;19565;46.602;11.534;2023-05-17T05:03:47;13.20;95.50
33207;DHT22;19565;46.602;11.534;2023-05-17T05:06:16;13.20;95.10
33207;DHT22;19565;46.602;11.534;2023-05-17T05:08:43;13.30;94.80
33207;DHT22;19565;46.602;11.534;2023-05-17T05:11:13;13.30;95.20
33207;DHT22;19565;46.602;11.534;2023-05-17T05:13:41;13.30;95.50
33207;DHT22;19565;46.602;11.534;2023-05-17T05:16:09;13.30;95.70
33207;DHT22;19565;46.602;11.534;2023-05-17T05:18:37;13.30;95.20
33207;DHT22;19565;46.602;11.534;2023-05-17T05:21:05;13.30;95.40
33207;DHT22;19565;46.602;11.534;2023-05-17T05:23:33;13.30;95.50
33207;DHT22;19565;46.602;11.534;2023-05-17T05:26:02;13.30;94.90
33207;DHT22;19565;46.602;11.534;2023-05-17T05:28:32;13.40;95.40
33207;DHT22;19565;46.602;11.534;2023-05-17T05:31:00;13.40;95.20
33207;DHT22;19565;46.602;11.534;2023-05-17T05:33:28;13.30;93.90
33207;DHT22;19565;46.602;11.534;2023-05-17T05:35:58;13.30;93.00
33207;DHT22;19565;46.602;11.534;2023-05-17T05:38:26;13.30;93.70
33207;DHT22;19565;46.602;11.534;2023-05-17T05:40:54;13.20;93.50
33207;DHT22;19565;46.602;11.534;2023-05-17T05:43:22;13.20;93.60
33207;DHT22;19565;46.602;11.534;2023-05-17T05:45:51;13.30;94.10
33207;DHT22;19565;46.602;11.534;2023-05-17T05:48:19;13.40;93.80
33207;DHT22;19565;46.602;11.534;2023-05-17T05:50:47;13.40;93.40
33207;DHT22;19565;46.602;11.534;2023-05-17T05:53:15;13.40;90.70
33207;DHT22;19565;46.602;11.534;2023-05-17T05:55:45;13.40;91.10
33207;DHT22;19565;46.602;11.534;2023-05-17T05:58:13;13.50;84.00
33207;DHT22;19565;46.602;11.534;2023-05-17T06:00:41;13.60;80.80
33207;DHT22;19565;46.602;11.534;2023-05-17T06:03:11;13.70;80.60
33207;DHT22;19565;46.602;11.534;2023-05-17T06:05:39;13.80;79.90
33207;DHT22;19565;46.602;11.534;2023-05-17T06:08:07;13.90;77.80
33207;DHT22;19565;46.602;11.534;2023-05-17T06:10:35;14.20;76.30
33207;DHT22;19565;46.602;11.534;2023-05-17T06:13:03;14.30;77.20
33207;DHT22;19565;46.602;11.534;2023-05-17T06:15:31;14.30;74.00
33207;DHT22;19565;46.602;11.534;2023-05-17T06:17:59;14.40;74.20
33207;DHT22;19565;46.602;11.534;2023-05-17T06:20:29;14.50;73.50
33207;DHT22;19565;46.602;11.534;2023-05-17T06:22:57;14.50;72.90
33207;DHT22;19565;46.602;11.534;2023-05-17T06:25:25;14.60;74.00
33207;DHT22;19565;46.602;11.534;2023-05-17T06:27:53;14.80;72.30
33207;DHT22;19565;46.602;11.534;2023-05-17T06:30:21;14.80;71.60
33207;DHT22;19565;46.602;11.534;2023-05-17T06:32:49;15.00;71.70
33207;DHT22;19565;46.602;11.534;2023-05-17T06:35:17;15.00;70.90
33207;DHT22;19565;46.602;11.534;2023-05-17T06:37:46;15.10;69.80
33207;DHT22;19565;46.602;11.534;2023-05-17T06:40:15;15.20;69.80
33207;DHT22;19565;46.602;11.534;2023-05-17T06:42:43;15.30;69.20
33207;DHT22;19565;46.602;11.534;2023-05-17T06:45:11;15.30;69.60
33207;DHT22;19565;46.602;11.534;2023-05-17T06:47:39;15.40;69.30
33207;DHT22;19565;46.602;11.534;2023-05-17T06:50:08;15.40;68.60
33207;DHT22;19565;46.602;11.534;2023-05-17T06:52:36;15.50;68.00
33207;DHT22;19565;46.602;11.534;2023-05-17T06:55:07;15.50;68.50
33207;DHT22;19565;46.602;11.534;2023-05-17T06:57:35;15.60;67.80
33207;DHT22;19565;46.602;11.534;2023-05-17T07:00:04;15.60;67.40
33207;DHT22;19565;46.602;11.534;2023-05-17T07:02:39;15.70;67.00
33207;DHT22;19565;46.602;11.534;2023-05-17T07:05:07;15.70;66.50
33207;DHT22;19565;46.602;11.534;2023-05-17T07:07:35;15.80;68.00
33207;DHT22;19565;46.602;11.534;2023-05-17T07:10:06;15.80;66.80
33207;DHT22;19565;46.602;11.534;2023-05-17T07:12:34;15.80;66.30
33207;DHT22;19565;46.602;11.534;2023-05-17T07:15:02;15.90;65.20
33207;DHT22;19565;46.602;11.534;2023-05-17T07:17:30;15.90;66.70
33207;DHT22;19565;46.602;11.534;2023-05-17T07:19:58;16.00;67.50
33207;DHT22;19565;46.602;11.534;2023-05-17T07:22:27;16.00;67.70
33207;DHT22;19565;46.602;11.534;2023-05-17T07:24:55;16.00;65.30
33207;DHT22;19565;46.602;11.534;2023-05-17T07:27:24;16.10;64.40
33207;DHT22;19565;46.602;11.534;2023-05-17T07:29:52;16.20;65.20
33207;DHT22;19565;46.602;11.534;2023-05-17T07:32:20;16.20;67.10
33207;DHT22;19565;46.602;11.534;2023-05-17T07:34:48;16.30;64.50
33207;DHT22;19565;46.602;11.534;2023-05-17T07:37:16;16.30;62.80
33207;DHT22;19565;46.602;11.534;2023-05-17T07:39:44;16.40;64.60
33207;DHT22;19565;46.602;11.534;2023-05-17T07:42:12;16.40;63.30
33207;DHT22;19565;46.602;11.534;2023-05-17T07:44:42;16.50;64.10
33207;DHT22;19565;46.602;11.534;2023-05-17T07:47:10;16.60;62.90
33207;DHT22;19565;46.602;11.534;2023-05-17T07:49:38;16.60;61.40
33207;DHT22;19565;46.602;11.534;2023-05-17T07:52:06;16.50;61.60
33207;DHT22;19565;46.602;11.534;2023-05-17T07:54:34;16.50;63.20
33207;DHT22;19565;46.602;11.534;2023-05-17T07:57:02;16.60;64.20
33207;DHT22;19565;46.602;11.534;2023-05-17T07:59:30;16.60;64.20
33207;DHT22;19565;46.602;11.534;2023-05-17T08:02:00;16.70;63.60
33207;DHT22;19565;46.602;11.534;2023-05-17T08:04:28;16.70;61.00
33207;DHT22;19565;46.602;11.534;2023-05-17T08:06:56;16.60;62.10
33207;DHT22;19565;46.602;11.534;2023-05-17T08:09:26;16.60;61.80
33207;DHT22;19565;46.602;11.534;2023-05-17T08:11:54;16.70;61.90
33207;DHT22;19565;46.602;11.534;2023-05-17T08:14:23;16.70;63.70
33207;DHT22;19565;46.602;11.534;2023-05-17T08:16:52;16.70;61.60
33207;DHT22;19565;46.602;11.534;2023-05-17T08:19:22;16.80;60.60
33207;DHT22;19565;46.602;11.534;2023-05-17T08:21:50;16.80;60.60
33207;DHT22;19565;46.602;11.534;2023-05-17T08:24:18;16.80;60.50
33207;DHT22;19565;46.602;11.534;2023-05-17T08:26:46;16.80;60.40
33207;DHT22;19565;46.602;11.534;2023-05-17T08:29:14;16.90;60.70
33207;DHT22;19565;46.602;11.534;2023-05-17T08:31:42;16.90;61.10
33207;DHT22;19565;46.602;11.534;2023-05-17T08:34:11;17.00;61.90
33207;DHT22;19565;46.602;11.534;2023-05-17T08:36:40;17.10;61.20
33207;DHT22;19565;46.602;11.534;2023-05-17T08:39:10;17.10;60.80
33207;DHT22;19565;46.602;11.534;2023-05-17T08:41:38;17.10;60.10
33207;DHT22;19565;46.602;11.534;2023-05-17T08:44:06;17.10;60.60
33207;DHT22;19565;46.602;11.534;2023-05-17T08:46:35;17.10;61.00
33207;DHT22;19565;46.602;11.534;2023-05-17T08:49:05;17.20;61.70
33207;DHT22;19565;46.602;11.534;2023-05-17T08:51:35;17.10;61.20
33207;DHT22;19565;46.602;11.534;2023-05-17T08:54:06;17.10;59.90
33207;DHT22;19565;46.602;11.534;2023-05-17T08:56:37;17.10;60.30
33207;DHT22;19565;46.602;11.534;2023-05-17T08:59:06;17.10;60.70
33207;DHT22;19565;46.602;11.534;2023-05-17T09:01:36;17.10;61.10
33207;DHT22;19565;46.602;11.534;2023-05-17T09:04:06;17.20;60.80
33207;DHT22;19565;46.602;11.534;2023-05-17T09:06:35;17.10;61.30
33207;DHT22;19565;46.602;11.534;2023-05-17T09:09:05;17.10;60.30
33207;DHT22;19565;46.602;11.534;2023-05-17T09:11:34;17.10;60.90
33207;DHT22;19565;46.602;11.534;2023-05-17T09:14:03;17.10;61.90
33207;DHT22;19565;46.602;11.534;2023-05-17T09:16:32;17.10;61.40
33207;DHT22;19565;46.602;11.534;2023-05-17T09:19:01;17.10;61.40
33207;DHT22;19565;46.602;11.534;2023-05-17T09:21:31;17.10;61.30
33207;DHT22;19565;46.602;11.534;2023-05-17T09:24:00;17.00;60.60
33207;DHT22;19565;46.602;11.534;2023-05-17T09:26:39;17.00;61.10
33207;DHT22;19565;46.602;11.534;2023-05-17T09:29:08;17.00;60.60
33207;DHT22;19565;46.602;11.534;2023-05-17T09:31:37;17.00;61.40
33207;DHT22;19565;46.602;11.534;2023-05-17T09:34:05;17.00;61.10
33207;DHT22;19565;46.602;11.534;2023-05-17T09:36:35;17.00;61.30
33207;DHT22;19565;46.602;11.534;2023-05-17T09:39:05;17.00;61.30
33207;DHT22;19565;46.602;11.534;2023-05-17T09:41:42;16.90;61.60
33207;DHT22;19565;46.602;11.534;2023-05-17T09:44:13;17.00;61.60
33207;DHT22;19565;46.602;11.534;2023-05-17T09:46:44;17.00;61.60
33207;DHT22;19565;46.602;11.534;2023-05-17T09:49:13;17.00;61.70
33207;DHT22;19565;46.602;11.534;2023-05-17T09:51:43;17.00;61.30
33207;DHT22;19565;46.602;11.534;2023-05-17T09:54:11;17.00;61.50
33207;DHT22;19565;46.602;11.534;2023-05-17T09:56:41;17.00;61.20
33207;DHT22;19565;46.602;11.534;2023-05-17T09:59:13;17.00;60.80
33207;DHT22;19565;46.602;11.534;2023-05-17T10:01:43;17.10;60.80
33207;DHT22;19565;46.602;11.534;2023-05-17T10:04:12;17.10;62.30
33207;DHT22;19565;46.602;11.534;2023-05-17T10:06:45;17.10;61.90
33207;DHT22;19565;46.602;11.534;2023-05-17T10:09:20;17.10;60.90
33207;DHT22;19565;46.602;11.534;2023-05-17T10:11:51;17.20;60.90
33207;DHT22;19565;46.602;11.534;2023-05-17T10:14:22;17.20;61.10
33207;DHT22;19565;46.602;11.534;2023-05-17T10:16:51;17.20;61.20
33207;DHT22;19565;46.602;11.534;2023-05-17T10:19:20;17.20;61.10
33207;DHT22;19565;46.602;11.534;2023-05-17T10:21:49;17.30;61.60
33207;DHT22;19565;46.602;11.534;2023-05-17T10:24:19;17.40;60.80
33207;DHT22;19565;46.602;11.534;2023-05-17T10:26:50;17.30;60.10
33207;DHT22;19565;46.602;11.534;2023-05-17T10:29:18;17.40;59.90
33207;DHT22;19565;46.602;11.534;2023-05-17T10:31:48;17.40;60.10
33207;DHT22;19565;46.602;11.534;2023-05-17T10:34:18;17.30;59.50
33207;DHT22;19565;46.602;11.534;2023-05-17T10:36:48;17.40;60.40
33207;DHT22;19565;46.602;11.534;2023-05-17T10:39:16;17.40;60.10
33207;DHT22;19565;46.602;11.534;2023-05-17T10:41:47;17.50;61.10
33207;DHT22;19565;46.602;11.534;2023-05-17T10:44:21;17.50;60.00
33207;DHT22;19565;46.602;11.534;2023-05-17T10:46:53;17.60;60.30
33207;DHT22;19565;46.602;11.534;2023-05-17T10:49:23;17.60;59.60
33207;DHT22;19565;46.602;11.534;2023-05-17T10:51:53;17.70;60.20
33207;DHT22;19565;46.602;11.534;2023-05-17T10:54:33;17.70;60.40
33207;DHT22;19565;46.602;11.534;2023-05-17T10:57:03;17.80;58.60
33207;DHT22;19565;46.602;11.534;2023-05-17T10:59:54;17.80;58.80
33207;DHT22;19565;46.602;11.534;2023-05-17T11:02:23;17.80;57.90
33207;DHT22;19565;46.602;11.534;2023-05-17T11:04:52;17.90;58.80
33207;DHT22;19565;46.602;11.534;2023-05-17T11:07:26;17.90;58.20
33207;DHT22;19565;46.602;11.534;2023-05-17T11:10:09;17.80;57.90
33207;DHT22;19565;46.602;11.534;2023-05-17T11:12:38;17.80;58.20
33207;DHT22;19565;46.602;11.534;2023-05-17T11:15:10;17.80;58.10
33207;DHT22;19565;46.602;11.534;2023-05-17T11:17:47;17.70;57.60
33207;DHT22;19565;46.602;11.534;2023-05-17T11:20:37;17.70;57.90
33207;DHT22;19565;46.602;11.534;2023-05-17T11:23:11;17.80;57.50
33207;DHT22;19565;46.602;11.534;2023-05-17T11:25:41;17.70;58.50
33207;DHT22;19565;46.602;11.534;2023-05-17T11:28:17;17.80;58.00
33207;DHT22;19565;46.602;11.534;2023-05-17T11:30:47;17.80;58.00
33207;DHT22;19565;46.602;11.534;2023-05-17T11:33:19;17.80;58.60
33207;DHT22;19565;46.602;11.534;2023-05-17T11:36:05;17.80;57.50
33207;DHT22;19565;46.602;11.534;2023-05-17T11:38:33;17.80;57.70
33207;DHT22;19565;46.602;11.534;2023-05-17T11:41:16;17.70;57.50
33207;DHT22;19565;46.602;11.534;2023-05-17T11:43:50;17.80;57.70
33207;DHT22;19565;46.602;11.534;2023-05-17T11:46:21;17.80;57.60
33207;DHT22;19565;46.602;11.534;2023-05-17T11:48:50;17.80;57.50
33207;DHT22;19565;46.602;11.534;2023-05-17T11:51:19;17.80;56.80
33207;DHT22;19565;46.602;11.534;2023-05-17T11:53:53;17.90;57.50
33207;DHT22;19565;46.602;11.534;2023-05-17T11:56:22;17.90;57.70
33207;DHT22;19565;46.602;11.534;2023-05-17T11:59:08;17.90;57.30
33207;DHT22;19565;46.602;11.534;2023-05-17T12:01:44;17.90;57.90
33207;DHT22;19565;46.602;11.534;2023-05-17T12:04:12;17.90;57.70
33207;DHT22;19565;46.602;11.534;2023-05-17T12:06:40;17.90;57.30
33207;DHT22;19565;46.602;11.534;2023-05-17T12:09:09;17.80;56.90
33207;DHT22;19565;46.602;11.534;2023-05-17T12:11:40;17.80;57.10
33207;DHT22;19565;46.602;11.534;2023-05-17T12:14:09;17.70;57.30
33207;DHT22;19565;46.602;11.534;2023-05-17T12:16:39;17.60;57.70
33207;DHT22;19565;46.602;11.534;2023-05-17T12:19:17;17.70;57.00
33207;DHT22;19565;46.602;11.534;2023-05-17T12:21:46;17.60;57.70
33207;DHT22;19565;46.602;11.534;2023-05-17T12:24:14;17.70;57.60
33207;DHT22;19565;46.602;11.534;2023-05-17T12:26:43;17.70;57.40
33207;DHT22;19565;46.602;11.534;2023-05-17T12:29:12;17.60;57.10
33207;DHT22;19565;46.602;11.534;2023-05-17T12:31:42;17.60;57.90
33207;DHT22;19565;46.602;11.534;2023-05-17T12:34:11;17.60;57.30
33207;DHT22;19565;46.602;11.534;2023-05-17T12:36:41;17.60;57.10
33207;DHT22;19565;46.602;11.534;2023-05-17T12:39:10;17.70;58.20
33207;DHT22;19565;46.602;11.534;2023-05-17T12:41:39;17.80;58.80
33207;DHT22;19565;46.602;11.534;2023-05-17T12:44:07;17.80;59.00
33207;DHT22;19565;46.602;11.534;2023-05-17T12:46:39;17.80;58.10
33207;DHT22;19565;46.602;11.534;2023-05-17T12:49:08;17.90;57.80
33207;DHT22;19565;46.602;11.534;2023-05-17T12:51:42;17.80;57.20
33207;DHT22;19565;46.602;11.534;2023-05-17T12:54:11;17.80;57.80
33207;DHT22;19565;46.602;11.534;2023-05-17T12:56:41;17.80;57.50
33207;DHT22;19565;46.602;11.534;2023-05-17T12:59:11;17.80;57.90
33207;DHT22;19565;46.602;11.534;2023-05-17T13:01:42;17.80;57.70
33207;DHT22;19565;46.602;11.534;2023-05-17T13:04:10;17.80;57.60
33207;DHT22;19565;46.602;11.534;2023-05-17T13:06:44;17.80;57.20
33207;DHT22;19565;46.602;11.534;2023-05-17T13:09:12;17.80;56.70
33207;DHT22;19565;46.602;11.534;2023-05-17T13:11:41;17.80;57.00
33207;DHT22;19565;46.602;11.534;2023-05-17T13:14:09;17.80;57.30
33207;DHT22;19565;46.602;11.534;2023-05-17T13:16:39;17.70;57.20
33207;DHT22;19565;46.602;11.534;2023-05-17T13:19:12;17.80;58.40
33207;DHT22;19565;46.602;11.534;2023-05-17T13:21:40;17.80;57.10
33207;DHT22;19565;46.602;11.534;2023-05-17T13:24:10;17.80;56.80
33207;DHT22;19565;46.602;11.534;2023-05-17T13:26:38;17.80;56.80
33207;DHT22;19565;46.602;11.534;2023-05-17T13:29:06;17.80;57.00
33207;DHT22;19565;46.602;11.534;2023-05-17T13:31:34;17.60;56.70
33207;DHT22;19565;46.602;11.534;2023-05-17T13:34:02;17.70;56.90
33207;DHT22;19565;46.602;11.534;2023-05-17T13:36:30;17.70;57.10
33207;DHT22;19565;46.602;11.534;2023-05-17T13:38:58;17.70;57.30
33207;DHT22;19565;46.602;11.534;2023-05-17T13:41:29;17.70;56.70
33207;DHT22;19565;46.602;11.534;2023-05-17T13:43:57;17.60;56.80
33207;DHT22;19565;46.602;11.534;2023-05-17T13:46:25;17.60;57.20
33207;DHT22;19565;46.602;11.534;2023-05-17T13:48:53;17.60;57.50
33207;DHT22;19565;46.602;11.534;2023-05-17T13:51:21;17.50;57.60
33207;DHT22;19565;46.602;11.534;2023-05-17T13:53:51;17.50;57.30
33207;DHT22;19565;46.602;11.534;2023-05-17T13:56:19;17.60;56.80
33207;DHT22;19565;46.602;11.534;2023-05-17T13:58:49;17.60;57.10
33207;DHT22;19565;46.602;11.534;2023-05-17T14:01:17;17.60;57.00
33207;DHT22;19565;46.602;11.534;2023-05-17T14:03:45;17.60;57.30
33207;DHT22;19565;46.602;11.534;2023-05-17T14:06:13;17.60;57.00
33207;DHT22;19565;46.602;11.534;2023-05-17T14:08:41;17.70;57.10
33207;DHT22;19565;46.602;11.534;2023-05-17T14:11:10;17.60;56.90
33207;DHT22;19565;46.602;11.534;2023-05-17T14:13:38;17.60;57.00
33207;DHT22;19565;46.602;11.534;2023-05-17T14:16:08;17.60;56.80
33207;DHT22;19565;46.602;11.534;2023-05-17T14:18:36;17.60;56.80
33207;DHT22;19565;46.602;11.534;2023-05-17T14:21:05;17.60;57.20
33207;DHT22;19565;46.602;11.534;2023-05-17T14:23:34;17.50;57.10
33207;DHT22;19565;46.602;11.534;2023-05-17T14:26:02;17.50;57.30
33207;DHT22;19565;46.602;11.534;2023-05-17T14:28:33;17.50;57.40
33207;DHT22;19565;46.602;11.534;2023-05-17T14:31:04;17.40;57.60
33207;DHT22;19565;46.602;11.534;2023-05-17T14:33:34;17.60;57.80
33207;DHT22;19565;46.602;11.534;2023-05-17T14:36:02;17.50;57.50
33207;DHT22;19565;46.602;11.534;2023-05-17T14:38:30;17.40;57.70
33207;DHT22;19565;46.602;11.534;2023-05-17T14:40:58;17.50;57.40
33207;DHT22;19565;46.602;11.534;2023-05-17T14:43:28;17.50;57.10
33207;DHT22;19565;46.602;11.534;2023-05-17T14:45:56;17.40;57.30
33207;DHT22;19565;46.602;11.534;2023-05-17T14:48:24;17.30;57.70
33207;DHT22;19565;46.602;11.534;2023-05-17T14:50:53;17.40;58.10
33207;DHT22;19565;46.602;11.534;2023-05-17T14:53:21;17.40;58.10
33207;DHT22;19565;46.602;11.534;2023-05-17T14:55:55;17.40;57.70
33207;DHT22;19565;46.602;11.534;2023-05-17T14:58:23;17.30;58.40
33207;DHT22;19565;46.602;11.534;2023-05-17T15:00:52;17.30;58.40
33207;DHT22;19565;46.602;11.534;2023-05-17T15:03:31;17.30;58.30
33207;DHT22;19565;46.602;11.534;2023-05-17T15:06:01;17.30;58.00
33207;DHT22;19565;46.602;11.534;2023-05-17T15:08:33;17.20;58.30
33207;DHT22;19565;46.602;11.534;2023-05-17T15:11:01;17.20;58.40
33207;DHT22;19565;46.602;11.534;2023-05-17T15:13:29;17.20;58.30
33207;DHT22;19565;46.602;11.534;2023-05-17T15:15:58;17.20;58.20
33207;DHT22;19565;46.602;11.534;2023-05-17T15:18:26;17.20;58.70
33207;DHT22;19565;46.602;11.534;2023-05-17T15:20:54;17.20;58.00
33207;DHT22;19565;46.602;11.534;2023-05-17T15:23:24;17.10;58.00
33207;DHT22;19565;46.602;11.534;2023-05-17T15:25:52;17.10;58.60
33207;DHT22;19565;46.602;11.534;2023-05-17T15:28:20;17.10;58.70
33207;DHT22;19565;46.602;11.534;2023-05-17T15:30:58;17.20;58.00